Time;durP1;ratioP1;P1;durP2;ratioP2;P2;SDS_P1;SDS_P2;PMS_P1;PMS_P2;Temp;Humidity;BMP_temperature;BMP_pressure;BME280_temperature;BME280_humidity;BME280_pressure;Samples;Min_cycle;Max_cycle;Signal;HPM_P1;HPM_P2
2023/08/21 00:00:41;;;;;;;5.53;3.30;;;20.50;99.90;;;;;;5054762;28;20471;-60
2023/08/21 00:03:08;;;;;;;3.90;3.23;;;20.40;99.90;;;;;;5053966;28;20955;-60
2023/08/21 00:05:35;;;;;;;4.20;3.80;;;20.30;99.90;;;;;;5053640;28;20440;-58
2023/08/21 00:08:01;;;;;;;5.73;2.67;;;20.30;99.90;;;;;;5053860;28;20459;-60
2023/08/21 00:10:28;;;;;;;5.80;3.27;;;20.20;99.90;;;;;;5053662;28;20443;-59
2023/08/21 00:12:56;;;;;;;4.03;3.07;;;20.20;99.90;;;;;;5053411;28;20439;-61
2023/08/21 00:15:23;;;;;;;4.10;2.40;;;20.20;99.90;;;;;;5053294;28;20440;-61
2023/08/21 00:17:50;;;;;;;4.50;2.83;;;20.10;99.90;;;;;;5053396;28;20480;-60
2023/08/21 00:20:17;;;;;;;4.27;2.90;;;20.00;99.90;;;;;;5053245;28;20817;-61
2023/08/21 00:22:43;;;;;;;6.57;3.00;;;20.00;99.90;;;;;;5053446;28;20471;-59
2023/08/21 00:25:10;;;;;;;8.60;3.57;;;20.00;99.90;;;;;;5052908;28;20961;-60
2023/08/21 00:27:37;;;;;;;4.20;3.30;;;19.90;99.90;;;;;;5054928;28;20471;-60
2023/08/21 00:30:06;;;;;;;3.63;2.90;;;19.90;99.90;;;;;;5057441;28;20519;-60
2023/08/21 00:32:33;;;;;;;5.73;3.33;;;19.80;99.90;;;;;;5057066;28;20440;-60
2023/08/21 00:35:00;;;;;;;6.10;3.43;;;19.80;99.90;;;;;;5056747;28;20960;-60
2023/08/21 00:37:26;;;;;;;4.80;4.20;;;19.80;99.90;;;;;;5056371;28;20484;-60
2023/08/21 00:39:53;;;;;;;3.60;3.30;;;19.70;99.90;;;;;;5056774;28;20440;-60
2023/08/21 00:42:20;;;;;;;7.60;3.53;;;19.60;99.90;;;;;;5056785;28;20819;-60
2023/08/21 00:44:47;;;;;;;6.83;3.90;;;19.60;99.90;;;;;;5056752;28;20444;-60
2023/08/21 00:47:15;;;;;;;5.00;3.60;;;19.50;99.90;;;;;;5056828;28;20435;-60
2023/08/21 00:49:42;;;;;;;6.83;4.03;;;19.50;99.90;;;;;;5056692;28;20443;-62
2023/08/21 00:52:11;;;;;;;4.63;3.70;;;19.40;99.90;;;;;;5056616;28;20450;-61
2023/08/21 00:54:38;;;;;;;4.57;3.47;;;19.40;99.90;;;;;;5056434;28;20444;-61
2023/08/21 00:57:05;;;;;;;6.33;3.70;;;19.30;99.90;;;;;;5056542;28;20491;-60
2023/08/21 00:59:32;;;;;;;7.60;4.20;;;19.30;99.90;;;;;;5056394;28;20463;-61
2023/08/21 01:01:59;;;;;;;6.03;5.43;;;19.20;99.90;;;;;;5056478;28;20447;-61
2023/08/21 01:04:27;;;;;;;5.93;4.30;;;19.20;99.90;;;;;;5056376;28;20436;-62
2023/08/21 01:06:54;;;;;;;5.77;4.30;;;19.20;99.90;;;;;;5056111;28;20440;-61
2023/08/21 01:09:28;;;;;;;4.67;4.27;;;19.10;99.90;;;;;;5056180;28;20472;-61
2023/08/21 01:12:04;;;;;;;5.60;4.20;;;19.10;99.90;;;;;;5056010;28;20917;-61
2023/08/21 01:14:37;;;;;;;5.73;4.23;;;19.10;99.90;;;;;;5056241;28;20428;-61
2023/08/21 01:17:07;;;;;;;5.13;4.40;;;19.00;99.90;;;;;;5056118;28;20901;-61
2023/08/21 01:19:41;;;;;;;5.23;4.17;;;19.00;99.90;;;;;;5055936;28;20456;-60
2023/08/21 01:22:08;;;;;;;4.93;4.33;;;18.90;99.90;;;;;;5055957;28;20430;-59
2023/08/21 01:24:36;;;;;;;5.47;4.17;;;18.90;99.90;;;;;;5056294;28;20448;-60
2023/08/21 01:27:03;;;;;;;9.60;6.67;;;18.90;99.90;;;;;;5055706;28;20963;-61
2023/08/21 01:29:30;;;;;;;6.30;5.10;;;18.90;99.90;;;;;;5056188;28;20849;-61
2023/08/21 01:32:02;;;;;;;6.20;4.67;;;18.80;99.90;;;;;;5056204;28;20455;-61
2023/08/21 01:34:33;;;;;;;5.90;4.20;;;18.80;99.90;;;;;;5056074;28;20482;-61
2023/08/21 01:37:00;;;;;;;6.10;4.77;;;18.80;99.90;;;;;;5056665;28;20472;-61
2023/08/21 01:39:27;;;;;;;5.10;4.50;;;18.70;99.90;;;;;;5054921;28;20838;-61
2023/08/21 01:41:56;;;;;;;5.60;4.60;;;18.70;99.90;;;;;;5055919;28;20440;-60
2023/08/21 01:44:24;;;;;;;6.23;4.00;;;18.70;99.90;;;;;;5055810;28;20501;-61
2023/08/21 01:46:50;;;;;;;7.60;4.27;;;18.70;99.90;;;;;;5055703;28;20439;-60
2023/08/21 01:49:18;;;;;;;6.53;4.40;;;18.60;99.90;;;;;;5055524;28;20464;-60
2023/08/21 01:51:45;;;;;;;5.67;4.20;;;18.70;99.90;;;;;;5055584;28;20502;-60
2023/08/21 01:54:12;;;;;;;4.97;4.20;;;18.70;99.90;;;;;;5055674;28;20451;-59
2023/08/21 01:56:39;;;;;;;5.97;4.43;;;18.60;99.90;;;;;;5055337;28;20440;-60
2023/08/21 01:59:07;;;;;;;5.00;4.13;;;18.60;99.90;;;;;;5055426;28;20483;-60
2023/08/21 02:01:34;;;;;;;7.80;4.87;;;18.50;99.90;;;;;;5055180;28;20493;-60
2023/08/21 02:04:00;;;;;;;5.07;3.63;;;18.50;99.90;;;;;;5055153;28;20440;-60
2023/08/21 02:06:27;;;;;;;5.63;5.13;;;18.50;99.90;;;;;;5054860;28;20440;-60
2023/08/21 02:08:54;;;;;;;6.17;3.90;;;18.50;99.90;;;;;;5054893;28;20456;-60
2023/08/21 02:11:20;;;;;;;6.33;4.50;;;18.40;99.90;;;;;;5054963;28;20436;-60
2023/08/21 02:13:47;;;;;;;4.83;4.27;;;18.40;99.90;;;;;;5054890;28;20446;-59
2023/08/21 02:16:15;;;;;;;5.90;4.40;;;18.40;99.90;;;;;;5054857;28;20436;-60
2023/08/21 02:18:42;;;;;;;4.80;4.10;;;18.50;99.90;;;;;;5054630;28;20490;-61
2023/08/21 02:21:09;;;;;;;5.47;3.80;;;18.50;99.90;;;;;;5054860;28;20812;-60
2023/08/21 02:23:35;;;;;;;4.47;4.07;;;18.40;99.90;;;;;;5054410;28;20519;-61
2023/08/21 02:26:02;;;;;;;5.10;4.63;;;18.40;99.90;;;;;;5054723;28;20440;-61
2023/08/21 02:28:29;;;;;;;6.07;4.70;;;18.40;99.90;;;;;;5054367;28;20483;-62
2023/08/21 02:30:56;;;;;;;6.60;4.37;;;18.40;99.90;;;;;;5055574;28;20944;-60
2023/08/21 02:33:24;;;;;;;5.17;4.23;;;18.40;99.90;;;;;;5054677;28;20449;-61
2023/08/21 02:35:51;;;;;;;5.73;4.03;;;18.30;99.90;;;;;;5054485;28;20520;-60
2023/08/21 02:38:18;;;;;;;5.90;4.70;;;18.30;99.90;;;;;;5054247;28;20479;-61
2023/08/21 02:40:44;;;;;;;5.53;4.90;;;18.30;99.90;;;;;;5054254;28;20443;-60
2023/08/21 02:43:11;;;;;;;4.73;3.70;;;18.20;99.90;;;;;;5054089;28;20790;-61
2023/08/21 02:45:38;;;;;;;5.80;4.60;;;18.30;99.90;;;;;;5054486;28;20817;-60
2023/08/21 02:48:05;;;;;;;4.53;3.97;;;18.30;99.90;;;;;;5054128;28;20456;-60
2023/08/21 02:50:33;;;;;;;4.83;4.17;;;18.30;99.90;;;;;;5053269;28;20440;-61
2023/08/21 02:53:00;;;;;;;5.23;3.97;;;18.30;99.90;;;;;;5054109;28;20442;-61
2023/08/21 02:55:27;;;;;;;5.10;4.57;;;18.30;99.90;;;;;;5054237;28;20444;-60
2023/08/21 02:57:53;;;;;;;4.47;3.67;;;18.30;99.90;;;;;;5054134;28;20558;-60
2023/08/21 03:00:20;;;;;;;4.43;3.97;;;18.30;99.90;;;;;;5053897;28;20948;-60
2023/08/21 03:02:47;;;;;;;4.20;3.50;;;18.30;99.90;;;;;;5054267;28;20440;-60
2023/08/21 03:05:14;;;;;;;7.27;3.50;;;18.30;99.90;;;;;;5054731;28;20444;-60
2023/08/21 03:07:42;;;;;;;3.60;2.97;;;18.40;99.90;;;;;;5054083;28;20452;-61
2023/08/21 03:10:10;;;;;;;4.63;2.90;;;18.40;99.90;;;;;;5054061;28;20790;-60
2023/08/21 03:12:36;;;;;;;5.03;3.10;;;18.50;99.90;;;;;;5053750;28;20436;-60
2023/08/21 03:15:04;;;;;;;3.53;2.60;;;18.50;99.90;;;;;;5053782;28;20467;-60
2023/08/21 03:17:30;;;;;;;5.90;3.00;;;18.50;99.90;;;;;;5053676;28;20510;-60
2023/08/21 03:19:57;;;;;;;4.23;2.90;;;18.50;99.90;;;;;;5053525;28;20440;-60
2023/08/21 03:22:24;;;;;;;3.83;2.93;;;18.50;99.90;;;;;;5053572;28;20458;-61
2023/08/21 03:24:52;;;;;;;7.90;2.80;;;18.50;99.90;;;;;;5053511;28;20462;-60
2023/08/21 03:27:20;;;;;;;4.90;3.47;;;18.50;99.90;;;;;;5052828;28;20440;-60
2023/08/21 03:29:48;;;;;;;5.67;3.17;;;18.50;99.90;;;;;;5053452;28;20775;-60
2023/08/21 03:32:16;;;;;;;3.83;3.03;;;18.40;99.90;;;;;;5055721;28;20475;-61
2023/08/21 03:34:43;;;;;;;7.00;3.50;;;18.40;99.90;;;;;;5055707;28;20471;-61
2023/08/21 03:37:09;;;;;;;5.83;3.17;;;18.40;99.90;;;;;;5053222;28;20443;-62
2023/08/21 03:39:36;;;;;;;4.90;3.43;;;18.40;99.90;;;;;;5053339;28;20447;-59
2023/08/21 03:42:05;;;;;;;5.80;3.83;;;18.40;99.90;;;;;;5052871;28;20960;-60
2023/08/21 03:44:33;;;;;;;4.43;3.10;;;18.40;99.90;;;;;;5053116;28;20813;-61
2023/08/21 03:47:00;;;;;;;4.67;3.27;;;18.40;99.90;;;;;;5053035;28;20440;-60
2023/08/21 03:49:26;;;;;;;6.63;3.00;;;18.40;99.90;;;;;;5052968;28;20463;-60
2023/08/21 03:51:53;;;;;;;5.57;3.20;;;18.40;99.90;;;;;;5053172;28;20444;-60
2023/08/21 03:54:20;;;;;;;4.20;2.90;;;18.40;99.90;;;;;;5053147;28;20447;-60
2023/08/21 03:56:46;;;;;;;4.40;3.10;;;18.40;99.90;;;;;;5053211;28;20448;-60
2023/08/21 03:59:15;;;;;;;7.63;3.60;;;18.40;99.90;;;;;;5052880;28;20506;-60
2023/08/21 04:01:41;;;;;;;3.70;3.10;;;18.40;99.90;;;;;;5052614;28;20812;-61
2023/08/21 04:04:08;;;;;;;6.83;3.80;;;18.40;99.90;;;;;;5053026;28;20440;-60
2023/08/21 04:06:35;;;;;;;3.97;3.20;;;18.40;99.90;;;;;;5053661;28;20436;-61
2023/08/21 04:12:09;;;;;;;3.83;3.43;;;18.40;99.90;;;;;;5111368;27;20602;-59
2023/08/21 04:14:35;;;;;;;7.37;3.93;;;18.40;99.90;;;;;;5110728;28;20751;-60
2023/08/21 04:17:02;;;;;;;8.10;3.50;;;18.40;99.90;;;;;;5110721;28;20448;-60
2023/08/21 04:19:32;;;;;;;8.17;3.73;;;18.50;99.90;;;;;;5111297;28;20506;-59
2023/08/21 04:21:59;;;;;;;4.53;3.60;;;18.50;99.90;;;;;;5111071;28;20466;-61
2023/08/21 04:24:26;;;;;;;5.40;3.03;;;18.50;99.90;;;;;;5111190;28;20433;-60
2023/08/21 04:26:53;;;;;;;4.30;3.87;;;18.50;99.90;;;;;;5110860;28;20441;-60
2023/08/21 04:29:21;;;;;;;6.03;3.60;;;18.50;99.90;;;;;;5110946;28;20457;-60
2023/08/21 04:31:48;;;;;;;4.33;3.50;;;18.50;99.90;;;;;;5110623;28;20480;-60
2023/08/21 04:34:14;;;;;;;9.13;3.20;;;18.60;99.90;;;;;;5110727;28;20441;-60
2023/08/21 04:36:41;;;;;;;6.80;3.67;;;18.60;99.90;;;;;;5110364;28;20433;-60
2023/08/21 04:39:08;;;;;;;6.23;3.63;;;18.60;99.90;;;;;;5110623;28;20465;-60
2023/08/21 04:41:35;;;;;;;4.63;3.70;;;18.60;99.90;;;;;;5110605;28;20524;-60
2023/08/21 04:44:02;;;;;;;8.27;4.20;;;18.60;99.90;;;;;;5110275;28;20441;-60
2023/08/21 04:46:31;;;;;;;4.93;3.77;;;18.60;99.90;;;;;;5110780;28;20441;-60
2023/08/21 04:48:57;;;;;;;6.00;3.60;;;18.60;99.90;;;;;;5110593;28;20663;-60
2023/08/21 04:51:24;;;;;;;4.53;3.70;;;18.60;99.90;;;;;;5110465;28;20564;-60
2023/08/21 04:53:51;;;;;;;5.23;4.63;;;18.70;99.90;;;;;;5110344;28;20441;-60
2023/08/21 04:56:18;;;;;;;6.53;3.57;;;18.70;99.90;;;;;;5110407;28;20442;-61
2023/08/21 04:58:44;;;;;;;7.20;4.10;;;18.90;99.90;;;;;;5110419;28;20465;-61
2023/08/21 05:01:12;;;;;;;4.90;3.50;;;19.00;99.90;;;;;;5110046;28;20438;-59
2023/08/21 05:03:40;;;;;;;6.20;3.70;;;19.20;99.90;;;;;;5111241;28;20444;-60
2023/08/21 05:06:06;;;;;;;4.33;3.10;;;19.40;99.90;;;;;;5110635;28;20440;-59
2023/08/21 05:08:33;;;;;;;5.90;4.57;;;19.60;99.90;;;;;;5110179;28;20983;-60
2023/08/21 05:11:00;;;;;;;6.47;3.40;;;19.60;99.90;;;;;;5109825;28;20481;-59
2023/08/21 05:13:28;;;;;;;5.27;3.83;;;19.70;99.90;;;;;;5110769;28;20441;-59
2023/08/21 05:15:56;;;;;;;7.97;3.70;;;19.70;99.90;;;;;;5110421;28;20441;-60
2023/08/21 05:18:23;;;;;;;5.83;3.70;;;19.70;99.90;;;;;;5109740;28;20982;-60
2023/08/21 05:20:55;;;;;;;4.23;3.00;;;19.60;99.90;;;;;;5110209;28;20437;-59
2023/08/21 05:23:22;;;;;;;7.13;3.40;;;19.60;99.90;;;;;;5097611;28;20532;-60
2023/08/21 05:25:49;;;;;;;6.03;3.80;;;19.50;99.90;;;;;;5096528;28;20442;-60
2023/08/21 05:28:16;;;;;;;7.23;4.30;;;19.40;99.90;;;;;;5096453;28;20469;-60
2023/08/21 05:30:43;;;;;;;6.10;3.30;;;19.30;99.90;;;;;;5096383;28;20490;-61
2023/08/21 05:33:10;;;;;;;4.10;3.30;;;19.20;99.90;;;;;;5096904;28;20440;-60
2023/08/21 05:35:37;;;;;;;2.97;2.70;;;19.10;99.90;;;;;;5097391;28;20438;-60
2023/08/21 05:38:06;;;;;;;5.20;3.93;;;19.10;99.90;;;;;;5095961;28;20458;-59
2023/08/21 05:40:33;;;;;;;8.90;3.50;;;19.20;99.90;;;;;;5096114;28;20442;-59
2023/08/21 05:43:00;;;;;;;6.87;3.53;;;19.20;99.90;;;;;;5096364;28;20453;-61
2023/08/21 05:45:26;;;;;;;6.30;4.10;;;19.30;99.90;;;;;;5096524;28;20438;-60
2023/08/21 05:47:53;;;;;;;5.77;3.50;;;19.40;99.90;;;;;;5096058;28;20458;-60
2023/08/21 05:50:20;;;;;;;9.70;4.67;;;19.50;99.90;;;;;;5096288;28;20434;-59
2023/08/21 05:52:47;;;;;;;6.07;4.20;;;19.60;99.90;;;;;;5095396;28;20442;-59
2023/08/21 05:55:15;;;;;;;6.07;3.90;;;19.70;99.90;;;;;;5095385;28;20446;-60
2023/08/21 05:57:42;;;;;;;7.63;4.17;;;19.70;99.90;;;;;;5096310;28;20469;-60
2023/08/21 06:00:09;;;;;;;7.10;3.73;;;19.80;99.90;;;;;;5095576;28;20438;-60
2023/08/21 06:02:36;;;;;;;3.70;3.37;;;19.90;99.90;;;;;;5094919;28;20979;-60
2023/08/21 06:05:04;;;;;;;4.67;3.83;;;20.00;99.90;;;;;;5106348;22;20493;-63
2023/08/21 06:07:30;;;;;;;7.40;3.77;;;20.20;99.90;;;;;;5036213;28;20891;-63
2023/08/21 06:09:57;;;;;;;4.87;3.40;;;20.40;99.90;;;;;;5035877;28;20502;-64
2023/08/21 06:12:26;;;;;;;5.67;3.57;;;20.60;99.90;;;;;;5035221;28;20481;-63
2023/08/21 06:14:52;;;;;;;4.97;3.30;;;20.90;99.90;;;;;;5035406;28;20522;-65
2023/08/21 06:17:19;;;;;;;5.60;3.20;;;21.10;99.90;;;;;;5035004;28;20441;-65
2023/08/21 06:19:46;;;;;;;5.67;3.83;;;21.30;99.90;;;;;;5034501;28;20961;-64
2023/08/21 06:22:13;;;;;;;6.17;3.73;;;21.40;99.90;;;;;;5034367;28;20961;-64
2023/08/21 06:24:39;;;;;;;5.43;3.70;;;21.50;99.90;;;;;;5034357;28;20953;-62
2023/08/21 06:27:06;;;;;;;6.90;3.67;;;21.50;99.90;;;;;;5034645;28;20448;-65
2023/08/21 06:29:34;;;;;;;6.90;4.07;;;21.50;99.90;;;;;;5034500;28;20455;-65
2023/08/21 06:32:01;;;;;;;5.83;3.50;;;21.50;99.90;;;;;;5034008;28;20469;-64
2023/08/21 06:34:28;;;;;;;6.23;3.73;;;21.50;99.90;;;;;;5033432;28;20449;-64
2023/08/21 06:36:55;;;;;;;3.57;2.90;;;21.60;99.90;;;;;;5034284;28;20471;-62
2023/08/21 06:39:21;;;;;;;4.63;3.67;;;21.70;99.90;;;;;;5034429;28;20445;-65
2023/08/21 06:41:48;;;;;;;5.63;3.87;;;21.80;99.90;;;;;;5034280;28;20818;-63
2023/08/21 06:44:15;;;;;;;5.17;3.30;;;21.80;99.90;;;;;;5034421;28;20449;-64
2023/08/21 06:46:43;;;;;;;4.60;3.60;;;21.90;99.90;;;;;;5034120;28;20465;-65
2023/08/21 06:49:10;;;;;;;6.80;3.70;;;22.10;99.90;;;;;;5034403;28;20495;-65
2023/08/21 06:51:37;;;;;;;7.90;3.10;;;22.20;99.90;;;;;;5034695;28;20575;-65
2023/08/21 06:54:04;;;;;;;7.10;3.40;;;22.30;99.90;;;;;;5034387;28;20441;-65
2023/08/21 06:56:30;;;;;;;8.00;3.27;;;22.40;99.70;;;;;;5033827;28;21037;-65
2023/08/21 06:58:57;;;;;;;9.47;3.20;;;22.50;99.20;;;;;;5034190;28;20452;-65
2023/08/21 07:01:24;;;;;;;5.33;3.57;;;22.70;98.40;;;;;;5033749;28;20939;-64
2023/08/21 07:03:52;;;;;;;6.87;3.73;;;22.60;97.70;;;;;;5034124;28;20495;-65
2023/08/21 07:06:19;;;;;;;5.07;3.30;;;22.60;97.40;;;;;;5033335;28;20480;-65
2023/08/21 07:08:46;;;;;;;5.47;3.13;;;22.50;97.20;;;;;;5033669;28;20441;-64
2023/08/21 07:11:13;;;;;;;5.13;3.03;;;22.40;97.10;;;;;;5033832;28;20481;-65
2023/08/21 07:13:40;;;;;;;7.70;2.97;;;22.30;97.20;;;;;;5033815;28;20441;-65
2023/08/21 07:16:08;;;;;;;7.03;3.20;;;22.30;97.20;;;;;;5033362;28;20480;-64
2023/08/21 07:18:36;;;;;;;5.70;2.40;;;22.30;96.80;;;;;;5033679;28;20540;-64
2023/08/21 07:21:04;;;;;;;5.87;2.57;;;22.30;96.00;;;;;;5033365;28;20447;-63
2023/08/21 07:23:31;;;;;;;4.77;2.90;;;22.30;95.70;;;;;;5033458;28;20944;-64
2023/08/21 07:25:58;;;;;;;3.83;2.73;;;22.40;95.50;;;;;;5033458;28;20469;-63
2023/08/21 07:28:25;;;;;;;4.83;2.47;;;22.40;95.20;;;;;;5033304;28;20869;-63
2023/08/21 07:30:56;;;;;;;7.03;3.43;;;22.50;95.00;;;;;;5033312;28;20452;-64
2023/08/21 07:33:23;;;;;;;5.10;2.80;;;22.60;94.50;;;;;;5033664;28;20434;-63
2023/08/21 07:35:58;;;;;;;5.33;3.97;;;22.80;94.10;;;;;;5033332;28;20464;-64
2023/08/21 07:38:26;;;;;;;4.47;2.93;;;22.90;92.70;;;;;;5033464;28;20513;-65
2023/08/21 07:41:03;;;;;;;5.40;4.03;;;22.90;92.10;;;;;;5033532;28;20445;-64
2023/08/21 07:43:30;;;;;;;4.80;3.20;;;22.90;91.80;;;;;;5033426;28;20421;-63
2023/08/21 07:45:56;;;;;;;7.13;3.47;;;22.80;91.70;;;;;;5033088;28;20561;-64
2023/08/21 07:48:23;;;;;;;8.17;3.30;;;22.90;91.50;;;;;;5033074;28;20452;-65
2023/08/21 07:50:52;;;;;;;5.10;3.23;;;22.90;91.20;;;;;;5033276;28;20451;-64
2023/08/21 07:53:19;;;;;;;8.70;4.03;;;23.00;91.10;;;;;;5033313;28;20433;-64
2023/08/21 07:55:47;;;;;;;3.70;3.10;;;23.20;91.00;;;;;;5032841;28;20990;-65
2023/08/21 07:58:14;;;;;;;6.50;3.50;;;23.40;90.60;;;;;;5032917;28;20444;-64
2023/08/21 08:00:42;;;;;;;6.60;4.30;;;23.60;90.00;;;;;;5033370;28;20831;-64
2023/08/21 08:03:09;;;;;;;5.80;3.70;;;23.80;88.50;;;;;;5033483;28;20445;-66
2023/08/21 08:05:36;;;;;;;5.93;3.30;;;24.10;86.80;;;;;;5032399;28;20484;-65
2023/08/21 08:08:03;;;;;;;4.93;3.40;;;24.30;84.40;;;;;;5032682;28;20440;-66
2023/08/21 08:10:30;;;;;;;6.30;3.10;;;24.40;82.90;;;;;;5033153;28;20451;-65
2023/08/21 08:12:58;;;;;;;8.43;3.63;;;24.50;81.50;;;;;;5032698;28;20592;-66
2023/08/21 08:15:25;;;;;;;4.47;3.57;;;24.60;80.00;;;;;;5032474;28;20480;-66
2023/08/21 08:17:52;;;;;;;5.40;3.23;;;24.60;79.50;;;;;;5032885;28;20448;-66
2023/08/21 08:20:19;;;;;;;5.93;3.47;;;24.70;79.10;;;;;;5032623;28;20449;-65
2023/08/21 08:22:46;;;;;;;7.73;4.03;;;24.80;78.70;;;;;;5032859;28;20447;-66
2023/08/21 08:25:13;;;;;;;7.37;3.90;;;24.90;77.70;;;;;;5033753;28;20476;-65
2023/08/21 08:27:40;;;;;;;6.43;3.93;;;25.00;76.60;;;;;;5033866;28;20540;-65
2023/08/21 08:30:09;;;;;;;6.80;3.70;;;25.00;76.00;;;;;;5034713;28;20454;-67
2023/08/21 08:32:36;;;;;;;5.90;3.27;;;25.10;75.30;;;;;;5034545;28;20507;-66
2023/08/21 08:35:04;;;;;;;4.50;2.83;;;25.20;74.40;;;;;;5034697;28;20465;-66
2023/08/21 08:37:30;;;;;;;8.00;3.67;;;25.40;73.30;;;;;;5034265;28;20441;-66
2023/08/21 08:39:57;;;;;;;10.40;3.40;;;25.60;72.20;;;;;;5033898;28;20440;-66
2023/08/21 08:42:24;;;;;;;7.93;3.13;;;25.70;70.80;;;;;;5034769;28;20441;-66
2023/08/21 08:44:54;;;;;;;5.43;2.47;;;25.70;69.20;;;;;;5034300;28;20464;-67
2023/08/21 08:47:23;;;;;;;5.70;2.70;;;25.80;67.80;;;;;;5034419;28;20436;-66
2023/08/21 08:49:51;;;;;;;5.43;2.20;;;26.00;65.70;;;;;;5033721;28;20451;-66
2023/08/21 08:52:19;;;;;;;9.87;4.50;;;26.00;64.50;;;;;;5032892;28;20480;-67
2023/08/21 08:54:47;;;;;;;2.90;1.70;;;25.90;63.20;;;;;;5032688;28;20448;-66
2023/08/21 08:57:14;;;;;;;4.63;3.00;;;25.90;62.40;;;;;;5033512;28;20445;-65
2023/08/21 08:59:41;;;;;;;4.97;2.30;;;25.70;60.70;;;;;;5036295;28;20450;-65
2023/08/21 09:02:08;;;;;;;4.97;2.20;;;25.70;60.00;;;;;;5037832;28;20527;-64
2023/08/21 09:04:36;;;;;;;5.87;3.40;;;25.70;59.90;;;;;;5036466;28;20453;-65
2023/08/21 09:07:13;;;;;;;7.63;3.37;;;25.70;60.10;;;;;;5037386;28;20481;-64
2023/08/21 09:09:41;;;;;;;6.87;3.10;;;25.70;60.70;;;;;;5036461;28;20500;-65
2023/08/21 09:12:12;;;;;;;6.90;2.73;;;25.80;60.90;;;;;;5036253;28;20485;-64
2023/08/21 09:14:40;;;;;;;6.03;3.10;;;26.00;61.00;;;;;;5036464;28;20499;-63
2023/08/21 09:17:08;;;;;;;5.90;3.43;;;26.10;60.80;;;;;;5036083;28;20498;-64
2023/08/21 09:19:36;;;;;;;6.30;3.20;;;26.00;60.40;;;;;;5036513;28;20445;-64
2023/08/21 09:22:09;;;;;;;7.20;2.83;;;26.10;60.30;;;;;;5036790;28;20818;-64
2023/08/21 09:24:36;;;;;;;5.30;3.00;;;26.20;60.10;;;;;;5036632;28;20875;-64
2023/08/21 09:27:04;;;;;;;5.20;2.73;;;26.30;59.80;;;;;;5036370;28;20997;-64
2023/08/21 09:29:40;;;;;;;4.10;2.70;;;26.40;59.20;;;;;;5035949;28;20449;-64
2023/08/21 09:32:06;;;;;;;6.70;2.60;;;26.50;58.50;;;;;;5036095;28;20989;-64
2023/08/21 09:34:37;;;;;;;4.30;2.57;;;26.50;58.30;;;;;;5035989;28;20441;-65
2023/08/21 09:37:07;;;;;;;3.47;2.00;;;26.50;58.30;;;;;;5035932;28;20800;-64
2023/08/21 09:39:35;;;;;;;3.33;2.27;;;26.60;58.20;;;;;;5035731;28;20965;-63
2023/08/21 09:42:02;;;;;;;7.20;3.20;;;26.70;57.90;;;;;;5037075;28;20990;-65
2023/08/21 09:44:30;;;;;;;4.40;2.10;;;26.80;57.90;;;;;;5036940;28;20499;-64
2023/08/21 09:46:56;;;;;;;3.60;2.23;;;26.70;57.90;;;;;;5037368;28;20456;-64
2023/08/21 09:49:24;;;;;;;5.23;2.20;;;26.70;57.90;;;;;;5037688;28;20969;-64
2023/08/21 09:51:53;;;;;;;4.83;2.50;;;26.80;57.90;;;;;;5038666;28;20485;-64
2023/08/21 09:54:21;;;;;;;3.93;2.30;;;26.80;57.50;;;;;;5038340;28;20449;-63
2023/08/21 09:56:51;;;;;;;6.90;2.70;;;27.00;57.20;;;;;;5038199;28;20464;-64
2023/08/21 09:59:18;;;;;;;5.90;2.47;;;27.10;56.80;;;;;;5038258;28;20452;-65
2023/08/21 10:01:48;;;;;;;4.50;2.90;;;27.20;56.50;;;;;;5037704;28;20455;-65
2023/08/21 10:04:15;;;;;;;4.67;2.90;;;27.20;56.50;;;;;;5037724;28;20445;-64
2023/08/21 10:06:42;;;;;;;6.37;2.50;;;27.10;56.60;;;;;;5037992;28;20480;-63
2023/08/21 10:09:10;;;;;;;3.03;1.80;;;27.10;56.60;;;;;;5037368;28;20440;-63
2023/08/21 10:11:37;;;;;;;3.77;1.77;;;27.10;56.10;;;;;;5036901;28;20903;-63
2023/08/21 10:14:05;;;;;;;3.73;1.70;;;27.10;55.50;;;;;;5037622;28;20445;-63
2023/08/21 10:16:32;;;;;;;4.70;2.30;;;27.10;54.80;;;;;;5037027;28;20503;-64
2023/08/21 10:19:05;;;;;;;3.97;1.93;;;27.20;53.60;;;;;;5036140;28;20441;-63
2023/08/21 10:21:36;;;;;;;4.93;2.20;;;27.20;52.70;;;;;;5036530;28;20525;-63
2023/08/21 10:24:03;;;;;;;2.23;1.50;;;27.00;51.20;;;;;;5036351;28;20496;-64
2023/08/21 10:26:32;;;;;;;3.07;1.60;;;26.70;50.10;;;;;;5038930;28;20456;-65
2023/08/21 10:29:02;;;;;;;2.50;1.60;;;26.60;49.90;;;;;;5034812;28;20447;-63
2023/08/21 10:31:34;;;;;;;3.07;1.80;;;26.40;49.30;;;;;;5035012;28;20447;-64
2023/08/21 10:34:02;;;;;;;4.13;1.73;;;26.30;49.50;;;;;;5035010;28;20555;-64
2023/08/21 10:36:40;;;;;;;2.67;1.57;;;26.40;49.70;;;;;;5034877;28;20522;-63
2023/08/21 10:39:16;;;;;;;3.27;1.83;;;26.50;49.70;;;;;;5034988;28;20468;-64
2023/08/21 10:41:54;;;;;;;7.20;2.10;;;26.50;49.90;;;;;;5034781;28;20429;-63
2023/08/21 10:44:35;;;;;;;3.13;1.97;;;26.40;50.20;;;;;;5034835;28;20421;-63
2023/08/21 10:47:16;;;;;;;4.63;2.73;;;26.30;50.60;;;;;;5035748;28;20799;-64
2023/08/21 10:49:43;;;;;;;3.57;2.03;;;26.30;51.00;;;;;;5036760;28;20782;-62
2023/08/21 10:52:10;;;;;;;3.30;2.13;;;26.60;51.10;;;;;;5036424;28;20481;-63
2023/08/21 10:54:47;;;;;;;4.13;2.13;;;26.90;50.30;;;;;;5035656;28;20450;-63
2023/08/21 10:57:16;;;;;;;5.50;2.40;;;27.30;49.10;;;;;;5035887;28;20429;-64
2023/08/21 10:59:57;;;;;;;3.83;2.90;;;27.50;48.40;;;;;;5036523;28;20931;-65
2023/08/21 11:02:24;;;;;;;4.43;1.80;;;27.90;47.90;;;;;;5036530;28;20479;-64
2023/08/21 11:04:52;;;;;;;4.43;1.67;;;28.40;47.80;;;;;;5035310;28;20469;-64
2023/08/21 11:07:19;;;;;;;3.10;1.33;;;28.60;46.80;;;;;;5035124;28;20425;-65
2023/08/21 11:09:46;;;;;;;2.80;2.03;;;28.70;46.60;;;;;;5034048;28;20907;-63
2023/08/21 11:12:16;;;;;;;5.03;2.47;;;28.70;46.50;;;;;;5034526;28;20493;-64
2023/08/21 11:14:43;;;;;;;3.90;2.07;;;28.70;46.50;;;;;;5034768;28;20483;-65
2023/08/21 11:17:10;;;;;;;3.67;1.70;;;28.60;46.50;;;;;;5039456;28;20476;-66
2023/08/21 11:19:38;;;;;;;3.90;1.87;;;28.70;46.50;;;;;;5039106;28;20464;-64
2023/08/21 11:22:06;;;;;;;2.23;1.70;;;28.70;46.40;;;;;;5040324;28;20445;-64
2023/08/21 11:24:49;;;;;;;3.40;1.77;;;28.70;46.60;;;;;;5041357;28;20883;-67
2023/08/21 11:27:19;;;;;;;4.23;1.73;;;28.50;46.80;;;;;;5042331;28;20429;-63
2023/08/21 11:29:46;;;;;;;5.10;1.60;;;28.40;47.00;;;;;;5040075;28;20504;-63
2023/08/21 11:32:15;;;;;;;6.30;2.00;;;28.20;47.20;;;;;;5034782;28;20455;-64
2023/08/21 11:34:43;;;;;;;6.77;2.30;;;28.10;47.70;;;;;;5033707;28;20468;-64
2023/08/21 11:37:10;;;;;;;4.20;1.77;;;27.80;48.20;;;;;;5034243;28;20445;-65
2023/08/21 11:39:45;;;;;;;2.20;1.47;;;27.60;48.60;;;;;;5033952;28;20448;-64
2023/08/21 11:42:13;;;;;;;4.67;2.00;;;27.70;48.70;;;;;;5033904;28;20439;-64
2023/08/21 11:44:50;;;;;;;3.73;2.07;;;27.70;48.70;;;;;;5033775;28;20445;-65
2023/08/21 11:47:18;;;;;;;3.43;2.00;;;27.80;49.00;;;;;;5033786;28;20444;-65
2023/08/21 11:49:48;;;;;;;4.83;1.97;;;27.70;49.20;;;;;;5033632;28;20440;-64
2023/08/21 11:52:19;;;;;;;7.50;2.30;;;27.60;49.30;;;;;;5034059;28;20433;-63
2023/08/21 11:54:49;;;;;;;3.37;1.77;;;27.50;49.40;;;;;;5033012;28;20445;-64
2023/08/21 11:57:16;;;;;;;3.00;1.70;;;27.30;49.20;;;;;;5033039;28;20973;-65
2023/08/21 11:59:43;;;;;;;2.40;1.70;;;27.30;49.30;;;;;;5034195;28;20440;-65
2023/08/21 12:02:15;;;;;;;3.50;1.80;;;27.30;49.20;;;;;;5034176;28;20441;-63
2023/08/21 12:04:43;;;;;;;3.80;2.00;;;27.30;49.30;;;;;;5034863;28;20449;-64
2023/08/21 12:07:10;;;;;;;3.03;1.80;;;27.30;49.40;;;;;;5058059;22;20508;-61
2023/08/21 12:09:36;;;;;;;5.60;2.60;;;27.20;49.50;;;;;;5033825;28;20444;-61
2023/08/21 12:12:04;;;;;;;6.00;3.20;;;27.20;49.90;;;;;;5033871;28;20452;-62
2023/08/21 12:14:30;;;;;;;4.30;1.90;;;27.20;50.10;;;;;;5033543;28;20476;-63
2023/08/21 12:16:57;;;;;;;3.00;1.70;;;27.10;50.20;;;;;;5034121;28;20464;-62
2023/08/21 12:19:26;;;;;;;4.07;2.00;;;27.20;50.10;;;;;;5033844;28;20447;-64
2023/08/21 12:21:52;;;;;;;5.23;1.80;;;27.60;49.50;;;;;;5033542;28;20512;-62
2023/08/21 12:24:19;;;;;;;3.23;2.03;;;27.60;49.10;;;;;;5033170;28;20448;-61
2023/08/21 12:26:46;;;;;;;2.63;1.60;;;27.60;49.10;;;;;;5033508;28;20468;-62
2023/08/21 12:29:13;;;;;;;4.00;1.90;;;27.40;49.20;;;;;;5033031;28;20452;-62
2023/08/21 12:31:39;;;;;;;6.63;2.43;;;27.50;49.20;;;;;;5033334;28;20448;-61
2023/08/21 12:34:06;;;;;;;2.17;1.67;;;27.60;49.10;;;;;;5036727;28;20487;-62
2023/08/21 12:36:37;;;;;;;4.03;1.70;;;27.60;48.80;;;;;;5036805;28;20841;-62
2023/08/21 12:39:05;;;;;;;4.00;1.57;;;27.80;48.50;;;;;;5036779;28;20961;-62
2023/08/21 12:41:32;;;;;;;3.40;1.53;;;27.90;48.10;;;;;;5037375;28;20444;-63
2023/08/21 12:43:59;;;;;;;4.17;1.43;;;27.90;47.90;;;;;;5037639;28;20441;-62
2023/08/21 12:46:27;;;;;;;3.90;2.00;;;27.90;47.80;;;;;;5039402;28;20845;-63
2023/08/21 12:48:54;;;;;;;3.90;1.60;;;28.00;47.80;;;;;;5037812;28;20540;-63
2023/08/21 12:51:20;;;;;;;5.10;1.70;;;28.10;47.40;;;;;;5037449;28;20939;-62
2023/08/21 12:53:49;;;;;;;4.30;1.30;;;28.30;46.90;;;;;;5037139;28;20492;-61